Details From KPRC - Prescott Ernest A. Love Field
To KSEZ - Sedona
Flight Number -
Tags Routegen Generated
Created
Modified
Stats Distance 34 nm / 62 km
Max Altitude 100 ft / 30 m
Waypoints 5
Social Downloads 0
Likes 0
Share VATSIM

Download

Looking for another format? Having issues loading an existing format? Contact us
Advertisement - Login to hide

Notes

Departing runway 4 KPRC. Arriving runway 4 KSEZ.

Route

KPRC +34.72_-112.35 +34.75_-112.11 +34.79_-111.86 KSEZ

ID Type Via Altitude Latitude Longitude Leg Dist Tot Dist Heading (true) Name
O KPRC APT - 0 ft / 0 m 34.66134˚ -112.41220˚ - 0 nm - -
+34.72_-112.35 LATLON - 100 ft / 30 m 34.71582˚ -112.35427˚ 4 nm 4 nm 41° / 41° -
+34.75_-112.11 LATLON - 100 ft / 30 m 34.75445˚ -112.10594˚ 12 nm 16 nm 79° / 79° -
+34.79_-111.86 LATLON - 100 ft / 30 m 34.79308˚ -111.85761˚ 12 nm 29 nm 79° / 79° -
O KSEZ APT - 0 ft / 0 m 34.84369˚ -111.79461˚ 4 nm 33 nm 46° / 46° -

Altitude Profile

Advertisement - Login to hide

KPRC

Details ICAO KPRC (PRC)
Name Prescott Ernest A. Love Field
Region United States
Timezone America/Phoenix (UTC-7.0)
Stats Elevation 5,042 ft / 1,537 m (AMSL)
Location 34.654462° -112.419514°
Runways 3
Magnetic Variation 10.627° E

METAR

KPRC 180653Z AUTO 00000KT 9SM CLR M01/M06 A3009 RMK AO2 SLP170 T10061056 401171033

Decode

TAF

TAF KPRC 180520Z 1806/1906 21006KT P6SM SCT070 FM181200 VRB05KT P6SM FEW250 FM190200 20006KT P6SM SCT250

Decode

Departure Runways

ID Width Length Bearing (true) Bearing (mag) Surface Threshold Offset Overrun Length
03L 60 ft / 18 m 4,847 ft / 1,478 m 41.15° 30.52° Asphalt 811 ft / 247 m 0 ft / 0 m
03R 150 ft / 46 m 7,553 ft / 2,302 m 41.14° 30.51° Asphalt 723 ft / 220 m 0 ft / 0 m
12 75 ft / 23 m 4,409 ft / 1,344 m 136.67° 126.04° Asphalt 150 ft / 46 m 0 ft / 0 m
21L 150 ft / 46 m 7,553 ft / 2,302 m 221.15° 210.52° Asphalt 0 ft / 0 m 0 ft / 0 m
21R 60 ft / 18 m 4,847 ft / 1,478 m 221.16° 210.53° Asphalt 0 ft / 0 m 0 ft / 0 m
30 75 ft / 23 m 4,409 ft / 1,344 m 316.67° 306.04° Asphalt 0 ft / 0 m 0 ft / 0 m

KSEZ

Details ICAO KSEZ (SDX)
Name Sedona
Region United States
Timezone America/Phoenix (UTC-7.0)
Stats Elevation 4,827 ft / 1,471 m (AMSL)
Location 34.848607° -111.788482°
Runways 1
Magnetic Variation 10.458° E

METAR

KSEZ 180715Z AUTO 03009KT 10SM CLR 05/M10 A3009 RMK AO2

Decode

TAF

TAF KSEZ 180520Z 1806/1906 05009KT P6SM SCT080 FM181400 VRB06KT P6SM FEW250 FM190300 04007KT P6SM SCT250

Decode

Destination Runways

ID Width Length Bearing (true) Bearing (mag) Surface Threshold Offset Overrun Length
03 100 ft / 30 m 5,130 ft / 1,564 m 45.63° 35.17° Asphalt 0 ft / 0 m 0 ft / 0 m
21 100 ft / 30 m 5,130 ft / 1,564 m 225.64° 215.18° Asphalt 0 ft / 0 m 0 ft / 0 m

Popular Alternatives